sensor_id;sensor_type;location;lat;lon;timestamp;P1;durP1;ratioP1;P2;durP2;ratioP2
68940;SDS011;55982;51.476;7.552;2022-11-15T00:01:48;18.33;;;11.70;;
68940;SDS011;55982;51.476;7.552;2022-11-15T00:04:14;19.25;;;11.40;;
68940;SDS011;55982;51.476;7.552;2022-11-15T00:06:39;21.63;;;11.55;;
68940;SDS011;55982;51.476;7.552;2022-11-15T00:09:05;17.88;;;10.35;;
68940;SDS011;55982;51.476;7.552;2022-11-15T00:11:30;16.80;;;11.32;;
68940;SDS011;55982;51.476;7.552;2022-11-15T00:13:56;19.48;;;11.20;;
68940;SDS011;55982;51.476;7.552;2022-11-15T00:16:22;21.75;;;11.75;;
68940;SDS011;55982;51.476;7.552;2022-11-15T00:18:48;18.55;;;11.13;;
68940;SDS011;55982;51.476;7.552;2022-11-15T00:21:14;23.75;;;11.13;;
68940;SDS011;55982;51.476;7.552;2022-11-15T00:23:40;20.05;;;11.18;;
68940;SDS011;55982;51.476;7.552;2022-11-15T00:26:05;20.30;;;11.07;;
68940;SDS011;55982;51.476;7.552;2022-11-15T00:28:31;17.73;;;10.95;;
68940;SDS011;55982;51.476;7.552;2022-11-15T00:31:03;23.63;;;11.38;;
68940;SDS011;55982;51.476;7.552;2022-11-15T00:33:30;19.13;;;10.90;;
68940;SDS011;55982;51.476;7.552;2022-11-15T00:36:14;22.27;;;10.95;;
68940;SDS011;55982;51.476;7.552;2022-11-15T00:38:40;18.67;;;10.55;;
68940;SDS011;55982;51.476;7.552;2022-11-15T00:41:06;19.48;;;10.55;;
68940;SDS011;55982;51.476;7.552;2022-11-15T00:43:32;15.35;;;9.63;;
68940;SDS011;55982;51.476;7.552;2022-11-15T00:45:59;17.30;;;10.60;;
68940;SDS011;55982;51.476;7.552;2022-11-15T00:48:24;16.70;;;10.13;;
68940;SDS011;55982;51.476;7.552;2022-11-15T00:50:49;16.83;;;10.23;;
68940;SDS011;55982;51.476;7.552;2022-11-15T00:53:16;16.50;;;10.25;;
68940;SDS011;55982;51.476;7.552;2022-11-15T00:55:41;17.45;;;10.45;;
68940;SDS011;55982;51.476;7.552;2022-11-15T00:58:07;18.10;;;9.93;;
68940;SDS011;55982;51.476;7.552;2022-11-15T01:00:33;17.15;;;10.63;;
68940;SDS011;55982;51.476;7.552;2022-11-15T01:02:59;15.85;;;10.27;;
68940;SDS011;55982;51.476;7.552;2022-11-15T01:05:25;18.13;;;9.90;;
68940;SDS011;55982;51.476;7.552;2022-11-15T01:07:51;14.82;;;10.60;;
68940;SDS011;55982;51.476;7.552;2022-11-15T01:10:17;20.52;;;10.45;;
68940;SDS011;55982;51.476;7.552;2022-11-15T01:12:43;16.15;;;10.02;;
68940;SDS011;55982;51.476;7.552;2022-11-15T01:15:09;16.27;;;10.70;;
68940;SDS011;55982;51.476;7.552;2022-11-15T01:17:34;16.92;;;10.13;;
68940;SDS011;55982;51.476;7.552;2022-11-15T01:19:59;17.13;;;10.30;;
68940;SDS011;55982;51.476;7.552;2022-11-15T01:22:25;18.52;;;10.02;;
68940;SDS011;55982;51.476;7.552;2022-11-15T01:24:50;16.50;;;10.45;;
68940;SDS011;55982;51.476;7.552;2022-11-15T01:27:16;19.75;;;10.60;;
68940;SDS011;55982;51.476;7.552;2022-11-15T01:29:41;15.63;;;10.38;;
68940;SDS011;55982;51.476;7.552;2022-11-15T01:32:07;19.48;;;10.48;;
68940;SDS011;55982;51.476;7.552;2022-11-15T01:34:32;18.52;;;10.45;;
68940;SDS011;55982;51.476;7.552;2022-11-15T01:36:58;17.33;;;9.85;;
68940;SDS011;55982;51.476;7.552;2022-11-15T01:39:23;15.48;;;10.75;;
68940;SDS011;55982;51.476;7.552;2022-11-15T01:41:49;17.92;;;10.20;;
68940;SDS011;55982;51.476;7.552;2022-11-15T01:46:59;18.33;;;10.30;;
68940;SDS011;55982;51.476;7.552;2022-11-15T01:49:28;16.75;;;10.32;;
68940;SDS011;55982;51.476;7.552;2022-11-15T01:51:57;15.13;;;10.73;;
68940;SDS011;55982;51.476;7.552;2022-11-15T01:54:23;16.15;;;10.63;;
68940;SDS011;55982;51.476;7.552;2022-11-15T01:56:55;19.40;;;10.63;;
68940;SDS011;55982;51.476;7.552;2022-11-15T01:59:25;21.05;;;10.88;;
68940;SDS011;55982;51.476;7.552;2022-11-15T02:01:51;17.45;;;10.40;;
68940;SDS011;55982;51.476;7.552;2022-11-15T02:04:18;15.82;;;10.65;;
68940;SDS011;55982;51.476;7.552;2022-11-15T02:06:48;18.08;;;10.95;;
68940;SDS011;55982;51.476;7.552;2022-11-15T02:09:14;18.92;;;10.52;;
68940;SDS011;55982;51.476;7.552;2022-11-15T02:11:40;20.00;;;10.70;;
68940;SDS011;55982;51.476;7.552;2022-11-15T02:14:06;14.63;;;11.13;;
68940;SDS011;55982;51.476;7.552;2022-11-15T02:16:52;20.95;;;11.20;;
68940;SDS011;55982;51.476;7.552;2022-11-15T02:22:28;18.13;;;10.68;;
68940;SDS011;55982;51.476;7.552;2022-11-15T02:28:10;20.98;;;11.60;;
68940;SDS011;55982;51.476;7.552;2022-11-15T02:38:59;21.35;;;11.60;;
68940;SDS011;55982;51.476;7.552;2022-11-15T02:41:45;19.65;;;11.27;;
68940;SDS011;55982;51.476;7.552;2022-11-15T02:47:02;18.33;;;11.15;;
68940;SDS011;55982;51.476;7.552;2022-11-15T02:49:37;19.17;;;11.43;;
68940;SDS011;55982;51.476;7.552;2022-11-15T02:52:05;19.17;;;11.90;;
68940;SDS011;55982;51.476;7.552;2022-11-15T02:54:32;21.95;;;11.45;;
68940;SDS011;55982;51.476;7.552;2022-11-15T02:57:05;20.42;;;12.02;;
68940;SDS011;55982;51.476;7.552;2022-11-15T02:59:41;21.67;;;12.63;;
68940;SDS011;55982;51.476;7.552;2022-11-15T03:07:23;16.88;;;12.20;;
68940;SDS011;55982;51.476;7.552;2022-11-15T03:10:05;22.33;;;13.23;;
68940;SDS011;55982;51.476;7.552;2022-11-15T03:15:01;18.90;;;12.05;;
68940;SDS011;55982;51.476;7.552;2022-11-15T03:18:07;16.33;;;11.23;;
68940;SDS011;55982;51.476;7.552;2022-11-15T03:20:41;18.98;;;11.77;;
68940;SDS011;55982;51.476;7.552;2022-11-15T03:23:08;22.73;;;11.30;;
68940;SDS011;55982;51.476;7.552;2022-11-15T03:25:36;16.17;;;11.07;;
68940;SDS011;55982;51.476;7.552;2022-11-15T03:28:08;16.85;;;10.70;;
68940;SDS011;55982;51.476;7.552;2022-11-15T03:30:36;18.02;;;10.23;;
68940;SDS011;55982;51.476;7.552;2022-11-15T03:33:04;20.08;;;11.13;;
68940;SDS011;55982;51.476;7.552;2022-11-15T03:35:33;16.30;;;10.30;;
68940;SDS011;55982;51.476;7.552;2022-11-15T03:38:22;16.98;;;10.38;;
68940;SDS011;55982;51.476;7.552;2022-11-15T03:40:59;14.60;;;10.07;;
68940;SDS011;55982;51.476;7.552;2022-11-15T03:46:16;13.75;;;9.07;;
68940;SDS011;55982;51.476;7.552;2022-11-15T03:48:50;13.20;;;9.35;;
68940;SDS011;55982;51.476;7.552;2022-11-15T03:51:22;16.55;;;9.15;;
68940;SDS011;55982;51.476;7.552;2022-11-15T03:53:48;14.40;;;9.48;;
68940;SDS011;55982;51.476;7.552;2022-11-15T03:56:13;11.80;;;8.50;;
68940;SDS011;55982;51.476;7.552;2022-11-15T03:58:39;14.98;;;8.60;;
68940;SDS011;55982;51.476;7.552;2022-11-15T04:01:04;13.43;;;9.60;;
68940;SDS011;55982;51.476;7.552;2022-11-15T04:03:29;14.88;;;8.88;;
68940;SDS011;55982;51.476;7.552;2022-11-15T04:05:54;15.95;;;9.02;;
68940;SDS011;55982;51.476;7.552;2022-11-15T04:08:20;13.98;;;8.48;;
68940;SDS011;55982;51.476;7.552;2022-11-15T04:10:48;15.63;;;8.98;;
68940;SDS011;55982;51.476;7.552;2022-11-15T04:13:14;12.52;;;8.50;;
68940;SDS011;55982;51.476;7.552;2022-11-15T04:15:39;12.60;;;8.57;;
68940;SDS011;55982;51.476;7.552;2022-11-15T04:18:04;13.38;;;8.68;;
68940;SDS011;55982;51.476;7.552;2022-11-15T04:20:30;14.55;;;8.98;;
68940;SDS011;55982;51.476;7.552;2022-11-15T04:23:16;13.20;;;9.05;;
68940;SDS011;55982;51.476;7.552;2022-11-15T04:26:02;15.65;;;8.48;;
68940;SDS011;55982;51.476;7.552;2022-11-15T04:28:34;12.63;;;8.75;;
68940;SDS011;55982;51.476;7.552;2022-11-15T04:30:59;14.43;;;8.75;;
68940;SDS011;55982;51.476;7.552;2022-11-15T04:33:25;13.43;;;9.27;;
68940;SDS011;55982;51.476;7.552;2022-11-15T04:35:50;12.43;;;8.77;;
68940;SDS011;55982;51.476;7.552;2022-11-15T04:38:35;15.05;;;9.35;;
68940;SDS011;55982;51.476;7.552;2022-11-15T04:41:01;14.55;;;9.02;;
68940;SDS011;55982;51.476;7.552;2022-11-15T04:43:27;12.73;;;8.75;;
68940;SDS011;55982;51.476;7.552;2022-11-15T04:45:52;12.30;;;8.85;;
68940;SDS011;55982;51.476;7.552;2022-11-15T04:48:18;16.15;;;8.68;;
68940;SDS011;55982;51.476;7.552;2022-11-15T04:50:43;13.60;;;8.45;;
68940;SDS011;55982;51.476;7.552;2022-11-15T04:53:08;13.48;;;9.02;;
68940;SDS011;55982;51.476;7.552;2022-11-15T04:55:34;12.30;;;9.00;;
68940;SDS011;55982;51.476;7.552;2022-11-15T04:57:59;13.38;;;8.50;;
68940;SDS011;55982;51.476;7.552;2022-11-15T05:00:26;11.73;;;8.75;;
68940;SDS011;55982;51.476;7.552;2022-11-15T05:02:52;12.02;;;8.48;;
68940;SDS011;55982;51.476;7.552;2022-11-15T05:05:36;10.73;;;8.15;;
68940;SDS011;55982;51.476;7.552;2022-11-15T05:08:02;14.23;;;9.02;;
68940;SDS011;55982;51.476;7.552;2022-11-15T05:10:28;11.77;;;8.00;;
68940;SDS011;55982;51.476;7.552;2022-11-15T05:12:53;10.90;;;8.10;;
68940;SDS011;55982;51.476;7.552;2022-11-15T05:15:19;11.43;;;9.18;;
68940;SDS011;55982;51.476;7.552;2022-11-15T05:17:44;10.05;;;8.40;;
68940;SDS011;55982;51.476;7.552;2022-11-15T05:20:10;10.18;;;7.85;;
68940;SDS011;55982;51.476;7.552;2022-11-15T05:22:35;12.63;;;8.20;;
68940;SDS011;55982;51.476;7.552;2022-11-15T05:25:01;12.02;;;8.95;;
68940;SDS011;55982;51.476;7.552;2022-11-15T05:27:27;12.07;;;8.93;;
68940;SDS011;55982;51.476;7.552;2022-11-15T05:29:52;11.57;;;8.82;;
68940;SDS011;55982;51.476;7.552;2022-11-15T05:32:17;12.48;;;8.52;;
68940;SDS011;55982;51.476;7.552;2022-11-15T05:34:43;11.65;;;8.07;;
68940;SDS011;55982;51.476;7.552;2022-11-15T05:37:08;15.73;;;8.52;;
68940;SDS011;55982;51.476;7.552;2022-11-15T05:39:34;12.68;;;8.07;;
68940;SDS011;55982;51.476;7.552;2022-11-15T05:42:01;9.95;;;8.32;;
68940;SDS011;55982;51.476;7.552;2022-11-15T05:44:33;11.25;;;8.32;;
68940;SDS011;55982;51.476;7.552;2022-11-15T05:47:01;10.30;;;8.18;;
68940;SDS011;55982;51.476;7.552;2022-11-15T05:49:30;12.60;;;8.25;;
68940;SDS011;55982;51.476;7.552;2022-11-15T05:51:59;11.93;;;7.82;;
68940;SDS011;55982;51.476;7.552;2022-11-15T05:54:25;12.63;;;7.95;;
68940;SDS011;55982;51.476;7.552;2022-11-15T05:56:50;10.82;;;7.65;;
68940;SDS011;55982;51.476;7.552;2022-11-15T05:59:16;12.00;;;7.57;;
68940;SDS011;55982;51.476;7.552;2022-11-15T06:01:43;9.73;;;7.47;;
68940;SDS011;55982;51.476;7.552;2022-11-15T06:04:08;12.63;;;7.57;;
68940;SDS011;55982;51.476;7.552;2022-11-15T06:06:34;10.93;;;8.15;;
68940;SDS011;55982;51.476;7.552;2022-11-15T06:08:59;11.20;;;7.13;;
68940;SDS011;55982;51.476;7.552;2022-11-15T06:11:25;13.80;;;7.25;;
68940;SDS011;55982;51.476;7.552;2022-11-15T06:13:50;9.52;;;7.65;;
68940;SDS011;55982;51.476;7.552;2022-11-15T06:16:15;10.43;;;7.65;;
68940;SDS011;55982;51.476;7.552;2022-11-15T06:18:41;11.95;;;7.78;;
68940;SDS011;55982;51.476;7.552;2022-11-15T06:21:06;9.55;;;7.03;;
68940;SDS011;55982;51.476;7.552;2022-11-15T06:23:32;8.50;;;6.90;;
68940;SDS011;55982;51.476;7.552;2022-11-15T06:25:59;11.32;;;6.72;;
68940;SDS011;55982;51.476;7.552;2022-11-15T06:28:28;8.98;;;7.15;;
68940;SDS011;55982;51.476;7.552;2022-11-15T06:30:55;8.45;;;6.40;;
68940;SDS011;55982;51.476;7.552;2022-11-15T06:33:21;7.57;;;6.25;;
68940;SDS011;55982;51.476;7.552;2022-11-15T06:35:49;10.45;;;6.85;;
68940;SDS011;55982;51.476;7.552;2022-11-15T06:38:15;9.00;;;6.20;;
68940;SDS011;55982;51.476;7.552;2022-11-15T06:40:40;7.43;;;5.50;;
68940;SDS011;55982;51.476;7.552;2022-11-15T06:43:05;7.22;;;5.65;;
68940;SDS011;55982;51.476;7.552;2022-11-15T06:45:31;7.53;;;5.25;;
68940;SDS011;55982;51.476;7.552;2022-11-15T06:47:57;6.93;;;5.00;;
68940;SDS011;55982;51.476;7.552;2022-11-15T06:50:23;6.25;;;4.95;;
68940;SDS011;55982;51.476;7.552;2022-11-15T06:52:48;8.07;;;4.95;;
68940;SDS011;55982;51.476;7.552;2022-11-15T06:55:14;9.70;;;4.88;;
68940;SDS011;55982;51.476;7.552;2022-11-15T06:57:46;5.75;;;4.35;;
68940;SDS011;55982;51.476;7.552;2022-11-15T07:00:13;5.18;;;4.28;;
68940;SDS011;55982;51.476;7.552;2022-11-15T07:02:38;5.82;;;4.00;;
68940;SDS011;55982;51.476;7.552;2022-11-15T07:05:04;5.70;;;4.30;;
68940;SDS011;55982;51.476;7.552;2022-11-15T07:07:30;5.15;;;3.78;;
68940;SDS011;55982;51.476;7.552;2022-11-15T07:09:55;5.20;;;3.83;;
68940;SDS011;55982;51.476;7.552;2022-11-15T07:12:20;7.13;;;3.80;;
68940;SDS011;55982;51.476;7.552;2022-11-15T07:14:46;6.55;;;3.70;;
68940;SDS011;55982;51.476;7.552;2022-11-15T07:17:11;4.30;;;3.60;;
68940;SDS011;55982;51.476;7.552;2022-11-15T07:19:36;6.47;;;4.22;;
68940;SDS011;55982;51.476;7.552;2022-11-15T07:22:01;6.85;;;3.53;;
68940;SDS011;55982;51.476;7.552;2022-11-15T07:24:27;4.93;;;3.50;;
68940;SDS011;55982;51.476;7.552;2022-11-15T07:26:52;5.55;;;3.38;;
68940;SDS011;55982;51.476;7.552;2022-11-15T07:29:17;4.72;;;3.28;;
68940;SDS011;55982;51.476;7.552;2022-11-15T07:31:43;4.03;;;3.25;;
68940;SDS011;55982;51.476;7.552;2022-11-15T07:34:08;5.75;;;3.25;;
68940;SDS011;55982;51.476;7.552;2022-11-15T07:36:34;3.25;;;2.95;;
68940;SDS011;55982;51.476;7.552;2022-11-15T07:39:00;3.78;;;2.83;;
68940;SDS011;55982;51.476;7.552;2022-11-15T07:41:25;5.30;;;3.20;;
68940;SDS011;55982;51.476;7.552;2022-11-15T07:43:51;3.38;;;2.83;;
68940;SDS011;55982;51.476;7.552;2022-11-15T07:46:17;4.93;;;3.17;;
68940;SDS011;55982;51.476;7.552;2022-11-15T07:48:43;5.93;;;3.28;;
68940;SDS011;55982;51.476;7.552;2022-11-15T07:51:10;3.35;;;2.70;;
68940;SDS011;55982;51.476;7.552;2022-11-15T07:53:37;5.53;;;2.92;;
68940;SDS011;55982;51.476;7.552;2022-11-15T07:56:05;3.50;;;3.03;;
68940;SDS011;55982;51.476;7.552;2022-11-15T07:58:31;4.78;;;2.70;;
68940;SDS011;55982;51.476;7.552;2022-11-15T08:00:57;6.30;;;2.80;;
68940;SDS011;55982;51.476;7.552;2022-11-15T08:03:22;3.88;;;2.88;;
68940;SDS011;55982;51.476;7.552;2022-11-15T08:05:50;5.47;;;2.78;;
68940;SDS011;55982;51.476;7.552;2022-11-15T08:08:16;3.25;;;2.35;;
68940;SDS011;55982;51.476;7.552;2022-11-15T08:10:41;4.53;;;2.72;;
68940;SDS011;55982;51.476;7.552;2022-11-15T08:13:09;3.63;;;2.47;;
68940;SDS011;55982;51.476;7.552;2022-11-15T08:15:36;6.05;;;2.65;;
68940;SDS011;55982;51.476;7.552;2022-11-15T08:18:02;5.20;;;2.70;;
68940;SDS011;55982;51.476;7.552;2022-11-15T08:20:30;2.53;;;2.30;;
68940;SDS011;55982;51.476;7.552;2022-11-15T08:22:57;2.78;;;2.30;;
68940;SDS011;55982;51.476;7.552;2022-11-15T08:25:23;5.93;;;2.42;;
68940;SDS011;55982;51.476;7.552;2022-11-15T08:27:55;3.80;;;2.17;;
68940;SDS011;55982;51.476;7.552;2022-11-15T08:30:22;2.97;;;2.15;;
68940;SDS011;55982;51.476;7.552;2022-11-15T08:32:49;3.03;;;2.03;;
68940;SDS011;55982;51.476;7.552;2022-11-15T08:35:15;3.15;;;1.98;;
68940;SDS011;55982;51.476;7.552;2022-11-15T08:37:40;4.07;;;2.30;;
68940;SDS011;55982;51.476;7.552;2022-11-15T08:40:06;4.85;;;2.30;;
68940;SDS011;55982;51.476;7.552;2022-11-15T08:42:32;3.22;;;2.10;;
68940;SDS011;55982;51.476;7.552;2022-11-15T08:44:58;3.60;;;1.80;;
68940;SDS011;55982;51.476;7.552;2022-11-15T08:47:23;4.18;;;1.90;;
68940;SDS011;55982;51.476;7.552;2022-11-15T08:49:49;3.08;;;2.10;;
68940;SDS011;55982;51.476;7.552;2022-11-15T08:52:15;3.00;;;1.90;;
68940;SDS011;55982;51.476;7.552;2022-11-15T08:54:40;4.85;;;1.63;;
68940;SDS011;55982;51.476;7.552;2022-11-15T08:57:06;4.03;;;1.80;;
68940;SDS011;55982;51.476;7.552;2022-11-15T08:59:31;5.90;;;2.00;;
68940;SDS011;55982;51.476;7.552;2022-11-15T09:01:57;4.72;;;2.10;;
68940;SDS011;55982;51.476;7.552;2022-11-15T09:04:22;1.67;;;1.55;;
68940;SDS011;55982;51.476;7.552;2022-11-15T09:06:47;1.95;;;1.27;;
68940;SDS011;55982;51.476;7.552;2022-11-15T09:09:13;3.33;;;1.40;;
68940;SDS011;55982;51.476;7.552;2022-11-15T09:11:39;2.90;;;1.50;;
68940;SDS011;55982;51.476;7.552;2022-11-15T09:14:04;5.43;;;1.70;;
68940;SDS011;55982;51.476;7.552;2022-11-15T09:16:30;2.28;;;1.70;;
68940;SDS011;55982;51.476;7.552;2022-11-15T09:18:56;4.32;;;1.35;;
68940;SDS011;55982;51.476;7.552;2022-11-15T09:21:21;4.57;;;1.58;;
68940;SDS011;55982;51.476;7.552;2022-11-15T09:23:49;2.17;;;1.33;;
68940;SDS011;55982;51.476;7.552;2022-11-15T09:26:16;3.83;;;1.45;;
68940;SDS011;55982;51.476;7.552;2022-11-15T09:28:41;3.40;;;1.50;;
68940;SDS011;55982;51.476;7.552;2022-11-15T09:31:07;2.45;;;1.30;;
68940;SDS011;55982;51.476;7.552;2022-11-15T09:33:33;2.05;;;1.38;;
68940;SDS011;55982;51.476;7.552;2022-11-15T09:36:04;3.17;;;1.23;;
68940;SDS011;55982;51.476;7.552;2022-11-15T09:38:32;3.42;;;1.65;;
68940;SDS011;55982;51.476;7.552;2022-11-15T09:43:50;2.40;;;1.33;;
68940;SDS011;55982;51.476;7.552;2022-11-15T09:46:25;1.30;;;1.05;;
68940;SDS011;55982;51.476;7.552;2022-11-15T09:48:52;3.45;;;1.30;;
68940;SDS011;55982;51.476;7.552;2022-11-15T09:51:55;5.68;;;1.20;;
68940;SDS011;55982;51.476;7.552;2022-11-15T09:54:25;2.88;;;1.27;;
68940;SDS011;55982;51.476;7.552;2022-11-15T09:56:55;2.75;;;1.20;;
68940;SDS011;55982;51.476;7.552;2022-11-15T09:59:49;1.77;;;1.30;;
68940;SDS011;55982;51.476;7.552;2022-11-15T10:05:07;2.10;;;1.70;;
68940;SDS011;55982;51.476;7.552;2022-11-15T10:10:15;2.22;;;1.30;;
68940;SDS011;55982;51.476;7.552;2022-11-15T10:12:50;1.55;;;1.05;;
68940;SDS011;55982;51.476;7.552;2022-11-15T10:15:18;2.92;;;1.20;;
68940;SDS011;55982;51.476;7.552;2022-11-15T10:20:37;1.75;;;1.20;;
68940;SDS011;55982;51.476;7.552;2022-11-15T10:23:06;1.45;;;1.10;;
68940;SDS011;55982;51.476;7.552;2022-11-15T10:25:36;3.03;;;1.00;;
68940;SDS011;55982;51.476;7.552;2022-11-15T10:31:01;2.38;;;1.10;;
68940;SDS011;55982;51.476;7.552;2022-11-15T10:41:13;2.03;;;1.00;;
68940;SDS011;55982;51.476;7.552;2022-11-15T10:43:38;1.88;;;0.90;;
68940;SDS011;55982;51.476;7.552;2022-11-15T10:46:20;1.50;;;1.13;;
68940;SDS011;55982;51.476;7.552;2022-11-15T10:48:47;2.60;;;0.98;;
68940;SDS011;55982;51.476;7.552;2022-11-15T10:51:25;1.98;;;1.13;;
68940;SDS011;55982;51.476;7.552;2022-11-15T10:53:54;2.83;;;0.90;;
68940;SDS011;55982;51.476;7.552;2022-11-15T10:56:22;2.20;;;0.95;;
68940;SDS011;55982;51.476;7.552;2022-11-15T10:58:53;2.90;;;0.90;;
68940;SDS011;55982;51.476;7.552;2022-11-15T11:01:28;3.63;;;0.88;;
68940;SDS011;55982;51.476;7.552;2022-11-15T11:03:58;1.10;;;0.90;;
68940;SDS011;55982;51.476;7.552;2022-11-15T11:06:24;1.63;;;0.90;;
68940;SDS011;55982;51.476;7.552;2022-11-15T11:08:57;2.70;;;1.00;;
68940;SDS011;55982;51.476;7.552;2022-11-15T11:11:44;2.53;;;1.27;;
68940;SDS011;55982;51.476;7.552;2022-11-15T11:14:13;1.58;;;1.08;;
68940;SDS011;55982;51.476;7.552;2022-11-15T11:16:55;1.30;;;1.02;;
68940;SDS011;55982;51.476;7.552;2022-11-15T11:24:45;1.10;;;1.00;;
68940;SDS011;55982;51.476;7.552;2022-11-15T11:37:17;3.42;;;1.35;;
68940;SDS011;55982;51.476;7.552;2022-11-15T11:47:58;1.15;;;0.80;;
68940;SDS011;55982;51.476;7.552;2022-11-15T11:50:27;1.30;;;0.80;;
68940;SDS011;55982;51.476;7.552;2022-11-15T11:55:41;1.38;;;0.90;;
68940;SDS011;55982;51.476;7.552;2022-11-15T12:04:44;2.00;;;0.80;;
68940;SDS011;55982;51.476;7.552;2022-11-15T12:09:44;0.90;;;0.80;;
68940;SDS011;55982;51.476;7.552;2022-11-15T12:12:30;2.67;;;0.90;;
68940;SDS011;55982;51.476;7.552;2022-11-15T12:15:02;1.70;;;0.88;;
68940;SDS011;55982;51.476;7.552;2022-11-15T12:20:06;1.55;;;1.15;;
68940;SDS011;55982;51.476;7.552;2022-11-15T12:22:59;3.08;;;0.80;;
68940;SDS011;55982;51.476;7.552;2022-11-15T12:25:34;2.30;;;1.10;;
68940;SDS011;55982;51.476;7.552;2022-11-15T12:28:20;1.88;;;0.80;;
68940;SDS011;55982;51.476;7.552;2022-11-15T12:30:50;2.55;;;1.00;;
68940;SDS011;55982;51.476;7.552;2022-11-15T12:33:37;1.10;;;0.90;;
68940;SDS011;55982;51.476;7.552;2022-11-15T12:38:59;1.73;;;0.90;;
68940;SDS011;55982;51.476;7.552;2022-11-15T12:41:29;1.83;;;0.70;;
68940;SDS011;55982;51.476;7.552;2022-11-15T12:43:56;1.52;;;0.82;;
68940;SDS011;55982;51.476;7.552;2022-11-15T12:54:54;4.97;;;1.45;;
68940;SDS011;55982;51.476;7.552;2022-11-15T13:17:39;3.70;;;1.10;;
68940;SDS011;55982;51.476;7.552;2022-11-15T13:20:17;3.40;;;0.95;;
68940;SDS011;55982;51.476;7.552;2022-11-15T13:25:30;6.03;;;1.08;;
68940;SDS011;55982;51.476;7.552;2022-11-15T13:27:58;4.20;;;1.20;;
68940;SDS011;55982;51.476;7.552;2022-11-15T13:30:29;4.07;;;1.08;;
68940;SDS011;55982;51.476;7.552;2022-11-15T13:33:07;2.58;;;1.00;;
68940;SDS011;55982;51.476;7.552;2022-11-15T13:35:38;2.95;;;1.17;;
68940;SDS011;55982;51.476;7.552;2022-11-15T13:38:05;1.73;;;0.88;;
68940;SDS011;55982;51.476;7.552;2022-11-15T13:40:35;1.95;;;0.85;;
68940;SDS011;55982;51.476;7.552;2022-11-15T13:43:23;1.90;;;1.10;;
68940;SDS011;55982;51.476;7.552;2022-11-15T13:48:45;2.42;;;0.70;;
68940;SDS011;55982;51.476;7.552;2022-11-15T13:52:01;3.17;;;0.88;;
68940;SDS011;55982;51.476;7.552;2022-11-15T13:56:42;1.65;;;0.95;;
68940;SDS011;55982;51.476;7.552;2022-11-15T14:02:15;5.20;;;1.20;;
68940;SDS011;55982;51.476;7.552;2022-11-15T14:04:48;4.93;;;1.70;;
68940;SDS011;55982;51.476;7.552;2022-11-15T14:07:24;4.97;;;1.30;;
68940;SDS011;55982;51.476;7.552;2022-11-15T14:09:51;4.75;;;1.40;;
68940;SDS011;55982;51.476;7.552;2022-11-15T14:14:59;3.60;;;1.60;;
68940;SDS011;55982;51.476;7.552;2022-11-15T14:19:54;3.00;;;1.45;;
68940;SDS011;55982;51.476;7.552;2022-11-15T14:27:38;4.82;;;1.80;;
68940;SDS011;55982;51.476;7.552;2022-11-15T14:30:04;5.07;;;1.95;;
68940;SDS011;55982;51.476;7.552;2022-11-15T14:32:47;4.82;;;2.03;;
68940;SDS011;55982;51.476;7.552;2022-11-15T14:35:18;2.92;;;1.73;;
68940;SDS011;55982;51.476;7.552;2022-11-15T14:37:46;3.58;;;1.63;;
68940;SDS011;55982;51.476;7.552;2022-11-15T14:40:13;6.25;;;1.98;;
68940;SDS011;55982;51.476;7.552;2022-11-15T14:42:41;3.78;;;1.95;;
68940;SDS011;55982;51.476;7.552;2022-11-15T14:45:14;4.05;;;1.70;;
68940;SDS011;55982;51.476;7.552;2022-11-15T14:47:41;3.88;;;1.83;;
68940;SDS011;55982;51.476;7.552;2022-11-15T14:50:17;3.35;;;1.83;;
68940;SDS011;55982;51.476;7.552;2022-11-15T14:52:44;4.53;;;1.90;;
68940;SDS011;55982;51.476;7.552;2022-11-15T14:55:12;4.82;;;1.83;;
68940;SDS011;55982;51.476;7.552;2022-11-15T14:57:49;2.70;;;1.67;;
68940;SDS011;55982;51.476;7.552;2022-11-15T15:00:15;3.78;;;1.83;;
68940;SDS011;55982;51.476;7.552;2022-11-15T15:02:42;3.83;;;2.00;;
68940;SDS011;55982;51.476;7.552;2022-11-15T15:05:16;2.83;;;1.75;;
68940;SDS011;55982;51.476;7.552;2022-11-15T15:07:43;2.22;;;1.98;;
68940;SDS011;55982;51.476;7.552;2022-11-15T15:10:09;6.15;;;1.65;;
68940;SDS011;55982;51.476;7.552;2022-11-15T15:12:35;4.43;;;1.73;;
68940;SDS011;55982;51.476;7.552;2022-11-15T15:15:00;4.82;;;1.83;;
68940;SDS011;55982;51.476;7.552;2022-11-15T15:17:26;4.30;;;1.83;;
68940;SDS011;55982;51.476;7.552;2022-11-15T15:19:51;5.50;;;1.90;;
68940;SDS011;55982;51.476;7.552;2022-11-15T15:22:17;2.78;;;1.90;;
68940;SDS011;55982;51.476;7.552;2022-11-15T15:24:46;3.25;;;1.77;;
68940;SDS011;55982;51.476;7.552;2022-11-15T15:27:12;2.88;;;1.60;;
68940;SDS011;55982;51.476;7.552;2022-11-15T15:29:38;3.15;;;2.30;;
68940;SDS011;55982;51.476;7.552;2022-11-15T15:32:04;3.47;;;1.83;;
68940;SDS011;55982;51.476;7.552;2022-11-15T15:34:30;7.53;;;2.30;;
68940;SDS011;55982;51.476;7.552;2022-11-15T15:39:34;4.35;;;2.08;;
68940;SDS011;55982;51.476;7.552;2022-11-15T15:42:00;4.65;;;1.83;;
68940;SDS011;55982;51.476;7.552;2022-11-15T15:44:25;4.63;;;2.10;;
68940;SDS011;55982;51.476;7.552;2022-11-15T15:46:50;3.83;;;2.03;;
68940;SDS011;55982;51.476;7.552;2022-11-15T15:49:16;4.57;;;2.03;;
68940;SDS011;55982;51.476;7.552;2022-11-15T15:51:41;8.52;;;2.33;;
68940;SDS011;55982;51.476;7.552;2022-11-15T15:54:06;5.53;;;1.90;;
68940;SDS011;55982;51.476;7.552;2022-11-15T15:56:32;3.17;;;2.08;;
68940;SDS011;55982;51.476;7.552;2022-11-15T15:58:57;4.47;;;2.30;;
68940;SDS011;55982;51.476;7.552;2022-11-15T16:01:22;4.68;;;1.70;;
68940;SDS011;55982;51.476;7.552;2022-11-15T16:03:48;2.38;;;1.70;;
68940;SDS011;55982;51.476;7.552;2022-11-15T16:09:00;6.20;;;2.42;;
68940;SDS011;55982;51.476;7.552;2022-11-15T16:11:25;5.05;;;1.88;;
68940;SDS011;55982;51.476;7.552;2022-11-15T16:13:50;8.38;;;2.35;;
68940;SDS011;55982;51.476;7.552;2022-11-15T16:16:21;3.67;;;1.98;;
68940;SDS011;55982;51.476;7.552;2022-11-15T16:18:47;4.63;;;1.88;;
68940;SDS011;55982;51.476;7.552;2022-11-15T16:21:12;3.47;;;1.80;;
68940;SDS011;55982;51.476;7.552;2022-11-15T16:23:37;3.10;;;2.00;;
68940;SDS011;55982;51.476;7.552;2022-11-15T16:26:06;2.25;;;1.58;;
68940;SDS011;55982;51.476;7.552;2022-11-15T16:28:43;4.38;;;1.73;;
68940;SDS011;55982;51.476;7.552;2022-11-15T16:31:11;5.00;;;1.88;;
68940;SDS011;55982;51.476;7.552;2022-11-15T16:33:37;7.07;;;2.20;;
68940;SDS011;55982;51.476;7.552;2022-11-15T16:36:04;2.90;;;1.90;;
68940;SDS011;55982;51.476;7.552;2022-11-15T16:38:37;3.90;;;1.90;;
68940;SDS011;55982;51.476;7.552;2022-11-15T16:41:04;4.70;;;2.13;;
68940;SDS011;55982;51.476;7.552;2022-11-15T16:43:29;4.38;;;1.70;;
68940;SDS011;55982;51.476;7.552;2022-11-15T16:45:54;3.35;;;1.88;;
68940;SDS011;55982;51.476;7.552;2022-11-15T16:48:25;3.60;;;2.00;;
68940;SDS011;55982;51.476;7.552;2022-11-15T16:50:55;4.05;;;2.28;;
68940;SDS011;55982;51.476;7.552;2022-11-15T16:53:22;4.07;;;1.70;;
68940;SDS011;55982;51.476;7.552;2022-11-15T16:55:47;5.72;;;2.00;;
68940;SDS011;55982;51.476;7.552;2022-11-15T16:58:13;4.10;;;2.10;;
68940;SDS011;55982;51.476;7.552;2022-11-15T17:00:38;3.45;;;1.90;;
68940;SDS011;55982;51.476;7.552;2022-11-15T17:03:03;6.93;;;2.08;;
68940;SDS011;55982;51.476;7.552;2022-11-15T17:05:29;4.40;;;2.00;;
68940;SDS011;55982;51.476;7.552;2022-11-15T17:07:55;4.20;;;2.15;;
68940;SDS011;55982;51.476;7.552;2022-11-15T17:10:21;3.95;;;2.08;;
68940;SDS011;55982;51.476;7.552;2022-11-15T17:12:47;3.70;;;2.03;;
68940;SDS011;55982;51.476;7.552;2022-11-15T17:15:14;2.58;;;1.80;;
68940;SDS011;55982;51.476;7.552;2022-11-15T17:17:39;4.28;;;2.20;;